sensor_id;sensor_type;location;lat;lon;timestamp;pressure;altitude;pressure_sealevel;temperature;humidity
28310;BME280;15571;50.974;13.936;2024-03-25T00:01:51;98591.94;;;9.01;100.00
28310;BME280;15571;50.974;13.936;2024-03-25T00:04:51;98599.78;;;9.01;100.00
28310;BME280;15571;50.974;13.936;2024-03-25T00:07:54;98606.06;;;8.92;100.00
28310;BME280;15571;50.974;13.936;2024-03-25T00:10:54;98597.34;;;8.92;100.00
28310;BME280;15571;50.974;13.936;2024-03-25T00:13:56;98606.53;;;8.72;100.00
28310;BME280;15571;50.974;13.936;2024-03-25T00:16:58;98593.84;;;8.93;100.00
28310;BME280;15571;50.974;13.936;2024-03-25T00:20:01;98598.47;;;8.83;100.00
28310;BME280;15571;50.974;13.936;2024-03-25T00:23:06;98596.75;;;8.82;100.00
28310;BME280;15571;50.974;13.936;2024-03-25T00:26:07;98594.41;;;8.71;100.00
28310;BME280;15571;50.974;13.936;2024-03-25T00:29:09;98594.09;;;8.83;100.00
28310;BME280;15571;50.974;13.936;2024-03-25T00:32:11;98601.19;;;8.78;100.00
28310;BME280;15571;50.974;13.936;2024-03-25T00:35:15;98605.16;;;8.93;100.00
28310;BME280;15571;50.974;13.936;2024-03-25T00:38:18;98605.91;;;8.62;100.00
28310;BME280;15571;50.974;13.936;2024-03-25T00:41:19;98611.13;;;8.62;100.00
28310;BME280;15571;50.974;13.936;2024-03-25T00:44:22;98619.38;;;8.42;100.00
28310;BME280;15571;50.974;13.936;2024-03-25T00:47:24;98607.25;;;8.41;100.00
28310;BME280;15571;50.974;13.936;2024-03-25T00:50:26;98610.72;;;8.40;100.00
28310;BME280;15571;50.974;13.936;2024-03-25T00:53:29;98621.06;;;8.43;100.00
28310;BME280;15571;50.974;13.936;2024-03-25T00:56:33;98614.22;;;8.39;100.00
28310;BME280;15571;50.974;13.936;2024-03-25T00:59:35;98616.06;;;8.34;100.00
28310;BME280;15571;50.974;13.936;2024-03-25T01:02:38;98613.72;;;8.23;100.00
28310;BME280;15571;50.974;13.936;2024-03-25T01:05:39;98614.63;;;7.78;100.00
28310;BME280;15571;50.974;13.936;2024-03-25T01:08:41;98618.63;;;7.94;100.00
28310;BME280;15571;50.974;13.936;2024-03-25T01:11:42;98614.94;;;8.06;100.00
28310;BME280;15571;50.974;13.936;2024-03-25T01:14:44;98616.63;;;8.09;100.00
28310;BME280;15571;50.974;13.936;2024-03-25T01:17:46;98614.56;;;8.23;100.00
28310;BME280;15571;50.974;13.936;2024-03-25T01:20:48;98614.91;;;8.08;100.00
28310;BME280;15571;50.974;13.936;2024-03-25T01:23:50;98611.19;;;8.18;100.00
28310;BME280;15571;50.974;13.936;2024-03-25T01:26:53;98611.16;;;8.21;100.00
28310;BME280;15571;50.974;13.936;2024-03-25T01:29:54;98616.47;;;8.15;100.00
28310;BME280;15571;50.974;13.936;2024-03-25T01:32:57;98619.03;;;8.18;100.00
28310;BME280;15571;50.974;13.936;2024-03-25T01:35:58;98620.59;;;8.27;100.00
28310;BME280;15571;50.974;13.936;2024-03-25T01:39:00;98633.78;;;8.19;100.00
28310;BME280;15571;50.974;13.936;2024-03-25T01:42:01;98628.31;;;8.32;100.00
28310;BME280;15571;50.974;13.936;2024-03-25T01:45:05;98624.59;;;8.42;100.00
28310;BME280;15571;50.974;13.936;2024-03-25T01:48:08;98644.84;;;8.29;100.00
28310;BME280;15571;50.974;13.936;2024-03-25T01:51:10;98638.78;;;8.29;100.00
28310;BME280;15571;50.974;13.936;2024-03-25T01:54:12;98641.53;;;8.21;100.00
28310;BME280;15571;50.974;13.936;2024-03-25T01:57:17;98650.78;;;8.36;100.00
28310;BME280;15571;50.974;13.936;2024-03-25T02:00:18;98652.66;;;8.31;100.00
28310;BME280;15571;50.974;13.936;2024-03-25T02:03:22;98652.56;;;8.35;100.00
28310;BME280;15571;50.974;13.936;2024-03-25T02:06:24;98647.50;;;8.28;100.00
28310;BME280;15571;50.974;13.936;2024-03-25T02:09:26;98666.06;;;8.12;100.00
28310;BME280;15571;50.974;13.936;2024-03-25T02:12:28;98670.38;;;8.13;100.00
28310;BME280;15571;50.974;13.936;2024-03-25T02:15:29;98675.53;;;8.16;100.00
28310;BME280;15571;50.974;13.936;2024-03-25T02:18:32;98676.31;;;8.21;100.00
28310;BME280;15571;50.974;13.936;2024-03-25T02:21:33;98675.47;;;8.19;100.00
28310;BME280;15571;50.974;13.936;2024-03-25T02:24:35;98672.53;;;7.92;100.00
28310;BME280;15571;50.974;13.936;2024-03-25T02:27:38;98682.31;;;7.81;100.00
28310;BME280;15571;50.974;13.936;2024-03-25T02:30:40;98684.03;;;7.82;100.00
28310;BME280;15571;50.974;13.936;2024-03-25T02:33:43;98688.59;;;7.71;100.00
28310;BME280;15571;50.974;13.936;2024-03-25T02:36:45;98684.84;;;7.84;100.00
28310;BME280;15571;50.974;13.936;2024-03-25T02:39:47;98682.34;;;7.78;100.00
28310;BME280;15571;50.974;13.936;2024-03-25T02:42:50;98681.34;;;7.85;100.00
28310;BME280;15571;50.974;13.936;2024-03-25T02:45:52;98689.94;;;7.90;100.00
28310;BME280;15571;50.974;13.936;2024-03-25T02:48:53;98685.66;;;7.88;100.00
28310;BME280;15571;50.974;13.936;2024-03-25T02:51:54;98690.78;;;7.92;100.00
28310;BME280;15571;50.974;13.936;2024-03-25T02:54:55;98691.66;;;7.91;100.00
28310;BME280;15571;50.974;13.936;2024-03-25T02:57:59;98693.31;;;7.95;100.00
28310;BME280;15571;50.974;13.936;2024-03-25T03:01:00;98686.06;;;8.12;100.00
28310;BME280;15571;50.974;13.936;2024-03-25T03:04:02;98694.84;;;8.06;100.00
28310;BME280;15571;50.974;13.936;2024-03-25T03:07:04;98693.22;;;8.02;100.00
28310;BME280;15571;50.974;13.936;2024-03-25T03:10:05;98699.31;;;7.99;100.00
28310;BME280;15571;50.974;13.936;2024-03-25T03:13:08;98700.31;;;7.93;100.00
28310;BME280;15571;50.974;13.936;2024-03-25T03:16:10;98707.22;;;7.94;100.00
28310;BME280;15571;50.974;13.936;2024-03-25T03:19:12;98710.56;;;8.03;100.00
28310;BME280;15571;50.974;13.936;2024-03-25T03:22:13;98710.44;;;8.09;100.00
28310;BME280;15571;50.974;13.936;2024-03-25T03:25:15;98715.78;;;8.03;100.00
28310;BME280;15571;50.974;13.936;2024-03-25T03:28:22;98723.38;;;8.14;100.00
28310;BME280;15571;50.974;13.936;2024-03-25T03:31:24;98712.94;;;8.14;100.00
28310;BME280;15571;50.974;13.936;2024-03-25T03:34:26;98716.28;;;8.20;100.00
28310;BME280;15571;50.974;13.936;2024-03-25T03:37:27;98720.69;;;8.18;100.00
28310;BME280;15571;50.974;13.936;2024-03-25T03:40:32;98725.84;;;8.21;100.00
28310;BME280;15571;50.974;13.936;2024-03-25T03:43:34;98728.91;;;7.97;100.00
28310;BME280;15571;50.974;13.936;2024-03-25T03:46:39;98729.44;;;8.14;100.00
28310;BME280;15571;50.974;13.936;2024-03-25T03:49:40;98735.53;;;8.15;100.00
28310;BME280;15571;50.974;13.936;2024-03-25T03:52:41;98736.31;;;8.18;100.00
28310;BME280;15571;50.974;13.936;2024-03-25T03:55:48;98743.44;;;8.10;100.00
28310;BME280;15571;50.974;13.936;2024-03-25T03:58:54;98751.78;;;8.28;100.00
28310;BME280;15571;50.974;13.936;2024-03-25T04:01:56;98758.69;;;7.82;100.00
28310;BME280;15571;50.974;13.936;2024-03-25T04:04:57;98756.72;;;7.94;100.00
28310;BME280;15571;50.974;13.936;2024-03-25T04:08:01;98763.47;;;8.06;100.00
28310;BME280;15571;50.974;13.936;2024-03-25T04:11:02;98766.81;;;8.15;100.00
28310;BME280;15571;50.974;13.936;2024-03-25T04:14:05;98770.50;;;8.01;100.00
28310;BME280;15571;50.974;13.936;2024-03-25T04:17:07;98768.88;;;7.97;100.00
28310;BME280;15571;50.974;13.936;2024-03-25T04:20:12;98770.25;;;8.17;100.00
28310;BME280;15571;50.974;13.936;2024-03-25T04:23:13;98783.38;;;8.10;100.00
28310;BME280;15571;50.974;13.936;2024-03-25T04:26:15;98786.06;;;8.07;100.00
28310;BME280;15571;50.974;13.936;2024-03-25T04:29:17;98790.56;;;7.98;100.00
28310;BME280;15571;50.974;13.936;2024-03-25T04:32:19;98787.59;;;8.18;100.00
28310;BME280;15571;50.974;13.936;2024-03-25T04:35:20;98788.63;;;8.09;100.00
28310;BME280;15571;50.974;13.936;2024-03-25T04:38:22;98803.41;;;8.07;100.00
28310;BME280;15571;50.974;13.936;2024-03-25T04:41:23;98805.00;;;8.16;100.00
28310;BME280;15571;50.974;13.936;2024-03-25T04:44:25;98799.97;;;8.06;100.00
28310;BME280;15571;50.974;13.936;2024-03-25T04:47:26;98807.22;;;8.36;100.00
28310;BME280;15571;50.974;13.936;2024-03-25T04:50:27;98812.50;;;8.33;100.00
28310;BME280;15571;50.974;13.936;2024-03-25T04:53:28;98819.38;;;8.37;100.00
28310;BME280;15571;50.974;13.936;2024-03-25T04:56:29;98819.56;;;8.28;100.00
28310;BME280;15571;50.974;13.936;2024-03-25T04:59:31;98835.06;;;8.35;100.00
28310;BME280;15571;50.974;13.936;2024-03-25T05:02:32;98838.81;;;8.20;100.00
28310;BME280;15571;50.974;13.936;2024-03-25T05:05:36;98845.16;;;8.04;100.00
28310;BME280;15571;50.974;13.936;2024-03-25T05:08:37;98841.66;;;8.06;100.00
28310;BME280;15571;50.974;13.936;2024-03-25T05:11:38;98842.47;;;8.10;100.00
28310;BME280;15571;50.974;13.936;2024-03-25T05:14:40;98847.44;;;8.24;100.00
28310;BME280;15571;50.974;13.936;2024-03-25T05:17:41;98855.09;;;8.33;100.00
28310;BME280;15571;50.974;13.936;2024-03-25T05:20:42;98864.13;;;8.14;100.00
28310;BME280;15571;50.974;13.936;2024-03-25T05:23:43;98855.94;;;8.34;100.00
28310;BME280;15571;50.974;13.936;2024-03-25T05:26:44;98854.16;;;8.36;100.00
28310;BME280;15571;50.974;13.936;2024-03-25T05:29:46;98863.22;;;8.16;100.00
28310;BME280;15571;50.974;13.936;2024-03-25T05:32:47;98858.69;;;8.26;100.00
28310;BME280;15571;50.974;13.936;2024-03-25T05:35:48;98869.19;;;8.23;100.00
28310;BME280;15571;50.974;13.936;2024-03-25T05:38:49;98873.88;;;8.02;100.00
28310;BME280;15571;50.974;13.936;2024-03-25T05:41:50;98878.03;;;8.13;100.00
28310;BME280;15571;50.974;13.936;2024-03-25T05:44:52;98882.28;;;8.18;100.00
28310;BME280;15571;50.974;13.936;2024-03-25T05:47:56;98884.94;;;8.15;100.00
28310;BME280;15571;50.974;13.936;2024-03-25T05:51:00;98886.69;;;8.15;100.00
28310;BME280;15571;50.974;13.936;2024-03-25T05:54:01;98887.13;;;8.40;100.00
28310;BME280;15571;50.974;13.936;2024-03-25T05:57:03;98890.66;;;8.36;100.00
28310;BME280;15571;50.974;13.936;2024-03-25T06:00:06;98893.00;;;8.03;100.00
28310;BME280;15571;50.974;13.936;2024-03-25T06:03:12;98896.03;;;8.26;100.00
28310;BME280;15571;50.974;13.936;2024-03-25T06:06:13;98918.59;;;8.31;100.00
28310;BME280;15571;50.974;13.936;2024-03-25T06:09:14;98912.69;;;8.19;100.00
28310;BME280;15571;50.974;13.936;2024-03-25T06:12:15;98908.34;;;8.18;100.00
28310;BME280;15571;50.974;13.936;2024-03-25T06:15:17;98909.91;;;8.29;100.00
28310;BME280;15571;50.974;13.936;2024-03-25T06:18:18;98914.50;;;8.16;100.00
28310;BME280;15571;50.974;13.936;2024-03-25T06:21:19;98932.66;;;8.20;100.00
28310;BME280;15571;50.974;13.936;2024-03-25T06:24:20;98940.41;;;8.25;100.00
28310;BME280;15571;50.974;13.936;2024-03-25T06:27:21;98925.41;;;8.38;100.00
28310;BME280;15571;50.974;13.936;2024-03-25T06:30:23;98936.19;;;8.16;100.00
28310;BME280;15571;50.974;13.936;2024-03-25T06:33:43;98940.00;;;8.51;100.00
28310;BME280;15571;50.974;13.936;2024-03-25T06:37:02;98939.91;;;8.56;100.00
28310;BME280;15571;50.974;13.936;2024-03-25T06:40:03;98949.38;;;8.62;100.00
28310;BME280;15571;50.974;13.936;2024-03-25T06:43:05;98957.97;;;8.67;100.00
28310;BME280;15571;50.974;13.936;2024-03-25T06:46:07;98952.56;;;8.76;100.00
28310;BME280;15571;50.974;13.936;2024-03-25T06:49:08;98960.28;;;8.82;100.00
28310;BME280;15571;50.974;13.936;2024-03-25T06:52:09;98961.47;;;8.66;100.00
28310;BME280;15571;50.974;13.936;2024-03-25T06:55:10;98976.50;;;8.50;100.00
28310;BME280;15571;50.974;13.936;2024-03-25T06:58:14;98966.97;;;8.50;100.00
28310;BME280;15571;50.974;13.936;2024-03-25T07:01:18;98968.94;;;8.34;100.00
28310;BME280;15571;50.974;13.936;2024-03-25T07:04:18;98979.13;;;8.51;100.00
28310;BME280;15571;50.974;13.936;2024-03-25T07:07:19;98987.00;;;8.45;100.00
28310;BME280;15571;50.974;13.936;2024-03-25T07:10:20;98982.78;;;8.38;100.00
28310;BME280;15571;50.974;13.936;2024-03-25T07:13:21;98989.41;;;8.59;100.00
28310;BME280;15571;50.974;13.936;2024-03-25T07:16:25;98996.16;;;8.71;100.00
28310;BME280;15571;50.974;13.936;2024-03-25T07:19:26;99000.34;;;8.81;100.00
28310;BME280;15571;50.974;13.936;2024-03-25T07:22:27;98996.72;;;8.87;100.00
28310;BME280;15571;50.974;13.936;2024-03-25T07:25:28;99000.97;;;8.94;100.00
28310;BME280;15571;50.974;13.936;2024-03-25T07:28:29;99004.03;;;9.16;100.00
28310;BME280;15571;50.974;13.936;2024-03-25T07:31:32;99003.72;;;8.86;100.00
28310;BME280;15571;50.974;13.936;2024-03-25T07:34:35;99009.47;;;9.04;100.00
28310;BME280;15571;50.974;13.936;2024-03-25T07:37:36;99024.88;;;9.19;100.00
28310;BME280;15571;50.974;13.936;2024-03-25T07:40:40;99024.13;;;9.11;100.00
28310;BME280;15571;50.974;13.936;2024-03-25T07:43:41;99021.59;;;9.07;100.00
28310;BME280;15571;50.974;13.936;2024-03-25T07:46:43;99019.47;;;9.29;100.00
28310;BME280;15571;50.974;13.936;2024-03-25T07:49:44;99036.16;;;9.20;100.00
28310;BME280;15571;50.974;13.936;2024-03-25T07:52:45;99043.81;;;9.29;100.00
28310;BME280;15571;50.974;13.936;2024-03-25T07:55:48;99034.81;;;9.44;100.00
28310;BME280;15571;50.974;13.936;2024-03-25T07:58:52;99044.59;;;9.34;100.00
28310;BME280;15571;50.974;13.936;2024-03-25T08:01:54;99045.75;;;9.18;100.00
28310;BME280;15571;50.974;13.936;2024-03-25T08:04:55;99040.03;;;9.44;100.00
28310;BME280;15571;50.974;13.936;2024-03-25T08:07:56;99048.38;;;9.62;100.00
28310;BME280;15571;50.974;13.936;2024-03-25T08:10:57;99055.34;;;9.63;100.00
28310;BME280;15571;50.974;13.936;2024-03-25T08:13:58;99046.19;;;9.42;100.00
28310;BME280;15571;50.974;13.936;2024-03-25T08:17:00;99051.19;;;9.54;100.00
28310;BME280;15571;50.974;13.936;2024-03-25T08:20:01;99046.25;;;9.39;100.00
28310;BME280;15571;50.974;13.936;2024-03-25T08:23:06;99059.31;;;9.39;100.00
28310;BME280;15571;50.974;13.936;2024-03-25T08:26:07;99073.34;;;9.33;100.00
28310;BME280;15571;50.974;13.936;2024-03-25T08:29:09;99060.91;;;9.46;100.00
28310;BME280;15571;50.974;13.936;2024-03-25T08:32:11;99065.94;;;9.55;100.00
28310;BME280;15571;50.974;13.936;2024-03-25T08:35:12;99054.31;;;9.72;100.00
28310;BME280;15571;50.974;13.936;2024-03-25T08:38:13;99054.22;;;9.76;100.00
28310;BME280;15571;50.974;13.936;2024-03-25T08:41:14;99064.81;;;9.69;100.00
28310;BME280;15571;50.974;13.936;2024-03-25T08:44:15;99076.34;;;9.60;100.00
28310;BME280;15571;50.974;13.936;2024-03-25T08:47:19;99068.72;;;9.91;100.00
28310;BME280;15571;50.974;13.936;2024-03-25T08:50:20;99072.91;;;9.99;100.00
28310;BME280;15571;50.974;13.936;2024-03-25T08:53:20;99074.03;;;9.87;100.00
28310;BME280;15571;50.974;13.936;2024-03-25T08:56:22;99075.41;;;10.03;100.00
28310;BME280;15571;50.974;13.936;2024-03-25T08:59:23;99089.56;;;9.93;100.00
28310;BME280;15571;50.974;13.936;2024-03-25T09:02:25;99086.91;;;9.96;100.00
28310;BME280;15571;50.974;13.936;2024-03-25T09:05:26;99082.63;;;9.92;100.00
28310;BME280;15571;50.974;13.936;2024-03-25T09:08:27;99082.56;;;9.95;100.00
28310;BME280;15571;50.974;13.936;2024-03-25T09:11:28;99097.59;;;10.26;100.00
28310;BME280;15571;50.974;13.936;2024-03-25T09:14:29;99097.03;;;10.11;100.00
28310;BME280;15571;50.974;13.936;2024-03-25T09:17:31;99097.75;;;9.77;100.00
28310;BME280;15571;50.974;13.936;2024-03-25T09:20:34;99107.19;;;9.85;100.00
28310;BME280;15571;50.974;13.936;2024-03-25T09:23:35;99103.44;;;9.98;100.00
28310;BME280;15571;50.974;13.936;2024-03-25T09:26:38;99115.59;;;9.99;100.00
28310;BME280;15571;50.974;13.936;2024-03-25T09:29:39;99125.22;;;9.97;100.00
28310;BME280;15571;50.974;13.936;2024-03-25T09:32:42;99122.31;;;10.11;100.00
28310;BME280;15571;50.974;13.936;2024-03-25T09:35:43;99126.69;;;10.10;100.00
28310;BME280;15571;50.974;13.936;2024-03-25T09:38:44;99132.28;;;9.92;100.00
28310;BME280;15571;50.974;13.936;2024-03-25T09:41:45;99142.63;;;9.98;100.00
28310;BME280;15571;50.974;13.936;2024-03-25T09:44:46;99138.34;;;10.36;100.00
28310;BME280;15571;50.974;13.936;2024-03-25T09:47:49;99144.78;;;10.20;100.00
28310;BME280;15571;50.974;13.936;2024-03-25T09:50:51;99157.13;;;10.15;100.00
28310;BME280;15571;50.974;13.936;2024-03-25T09:53:53;99152.78;;;10.56;100.00
28310;BME280;15571;50.974;13.936;2024-03-25T09:56:54;99149.97;;;10.64;100.00
28310;BME280;15571;50.974;13.936;2024-03-25T09:59:57;99147.50;;;10.57;100.00
28310;BME280;15571;50.974;13.936;2024-03-25T10:03:02;99152.56;;;10.64;100.00
28310;BME280;15571;50.974;13.936;2024-03-25T10:06:03;99152.63;;;10.21;100.00
28310;BME280;15571;50.974;13.936;2024-03-25T10:09:04;99156.81;;;10.69;100.00
28310;BME280;15571;50.974;13.936;2024-03-25T10:12:06;99153.97;;;10.41;100.00
28310;BME280;15571;50.974;13.936;2024-03-25T10:15:07;99164.22;;;10.50;100.00
28310;BME280;15571;50.974;13.936;2024-03-25T10:18:12;99160.75;;;10.50;100.00
28310;BME280;15571;50.974;13.936;2024-03-25T10:21:13;99157.69;;;10.70;100.00
28310;BME280;15571;50.974;13.936;2024-03-25T10:24:15;99154.09;;;10.74;100.00
28310;BME280;15571;50.974;13.936;2024-03-25T10:27:17;99159.44;;;10.69;100.00
28310;BME280;15571;50.974;13.936;2024-03-25T10:30:19;99154.19;;;10.69;100.00
28310;BME280;15571;50.974;13.936;2024-03-25T10:33:21;99153.69;;;10.91;100.00
28310;BME280;15571;50.974;13.936;2024-03-25T10:36:24;99154.97;;;11.11;100.00
28310;BME280;15571;50.974;13.936;2024-03-25T10:39:25;99154.22;;;11.05;100.00
28310;BME280;15571;50.974;13.936;2024-03-25T10:42:26;99155.13;;;11.04;100.00
28310;BME280;15571;50.974;13.936;2024-03-25T10:45:29;99154.91;;;11.14;100.00
28310;BME280;15571;50.974;13.936;2024-03-25T10:48:32;99142.81;;;11.08;100.00
28310;BME280;15571;50.974;13.936;2024-03-25T10:51:35;99145.53;;;10.67;100.00
28310;BME280;15571;50.974;13.936;2024-03-25T10:54:36;99152.19;;;10.81;100.00
28310;BME280;15571;50.974;13.936;2024-03-25T10:57:38;99154.63;;;10.88;100.00
28310;BME280;15571;50.974;13.936;2024-03-25T11:00:39;99146.28;;;10.72;100.00
28310;BME280;15571;50.974;13.936;2024-03-25T11:03:42;99150.84;;;11.00;100.00
28310;BME280;15571;50.974;13.936;2024-03-25T11:06:43;99152.63;;;10.98;100.00
28310;BME280;15571;50.974;13.936;2024-03-25T11:09:44;99148.09;;;11.07;100.00
28310;BME280;15571;50.974;13.936;2024-03-25T11:12:45;99153.69;;;10.91;100.00
28310;BME280;15571;50.974;13.936;2024-03-25T11:15:50;99149.03;;;11.39;100.00
28310;BME280;15571;50.974;13.936;2024-03-25T11:18:52;99148.88;;;11.45;100.00
28310;BME280;15571;50.974;13.936;2024-03-25T11:21:54;99142.25;;;11.64;100.00
28310;BME280;15571;50.974;13.936;2024-03-25T11:25:04;99147.06;;;11.47;100.00
28310;BME280;15571;50.974;13.936;2024-03-25T11:28:05;99152.72;;;11.64;100.00
28310;BME280;15571;50.974;13.936;2024-03-25T11:31:06;99144.03;;;11.62;100.00
28310;BME280;15571;50.974;13.936;2024-03-25T11:34:09;99144.25;;;11.86;100.00
28310;BME280;15571;50.974;13.936;2024-03-25T11:37:10;99148.47;;;11.60;100.00
28310;BME280;15571;50.974;13.936;2024-03-25T11:40:14;99139.19;;;11.80;100.00
28310;BME280;15571;50.974;13.936;2024-03-25T11:43:18;99147.47;;;11.97;100.00
28310;BME280;15571;50.974;13.936;2024-03-25T11:46:24;99141.81;;;11.47;100.00
28310;BME280;15571;50.974;13.936;2024-03-25T11:49:26;99142.56;;;11.85;100.00
28310;BME280;15571;50.974;13.936;2024-03-25T11:52:31;99150.59;;;12.10;100.00
28310;BME280;15571;50.974;13.936;2024-03-25T11:55:35;99140.66;;;11.90;100.00
28310;BME280;15571;50.974;13.936;2024-03-25T11:58:36;99141.34;;;11.95;100.00
28310;BME280;15571;50.974;13.936;2024-03-25T12:01:38;99149.19;;;11.98;100.00
28310;BME280;15571;50.974;13.936;2024-03-25T12:04:43;99141.69;;;12.16;100.00
28310;BME280;15571;50.974;13.936;2024-03-25T12:07:45;99135.19;;;12.29;100.00
28310;BME280;15571;50.974;13.936;2024-03-25T12:10:46;99147.47;;;12.27;100.00
28310;BME280;15571;50.974;13.936;2024-03-25T12:14:05;99149.28;;;12.25;100.00
28310;BME280;15571;50.974;13.936;2024-03-25T12:17:06;99148.06;;;11.74;100.00
28310;BME280;15571;50.974;13.936;2024-03-25T12:20:09;99156.97;;;11.68;100.00
28310;BME280;15571;50.974;13.936;2024-03-25T12:23:10;99149.44;;;11.23;100.00
28310;BME280;15571;50.974;13.936;2024-03-25T12:26:11;99151.75;;;11.34;100.00
28310;BME280;15571;50.974;13.936;2024-03-25T12:29:12;99155.97;;;11.40;100.00
28310;BME280;15571;50.974;13.936;2024-03-25T12:32:13;99157.28;;;11.58;100.00
28310;BME280;15571;50.974;13.936;2024-03-25T12:35:16;99153.19;;;11.79;100.00
28310;BME280;15571;50.974;13.936;2024-03-25T12:38:23;99152.13;;;11.86;100.00
28310;BME280;15571;50.974;13.936;2024-03-25T12:41:24;99156.16;;;11.99;100.00
28310;BME280;15571;50.974;13.936;2024-03-25T12:44:25;99143.25;;;12.23;100.00
28310;BME280;15571;50.974;13.936;2024-03-25T12:47:27;99143.25;;;12.23;100.00
28310;BME280;15571;50.974;13.936;2024-03-25T12:50:29;99141.44;;;12.54;100.00
28310;BME280;15571;50.974;13.936;2024-03-25T12:53:30;99145.66;;;12.59;100.00
28310;BME280;15571;50.974;13.936;2024-03-25T12:56:31;99139.03;;;12.46;100.00
28310;BME280;15571;50.974;13.936;2024-03-25T12:59:32;99151.91;;;12.25;100.00
28310;BME280;15571;50.974;13.936;2024-03-25T13:02:33;99152.22;;;12.14;100.00
28310;BME280;15571;50.974;13.936;2024-03-25T13:05:35;99171.81;;;12.03;100.00
28310;BME280;15571;50.974;13.936;2024-03-25T13:08:36;99164.78;;;12.05;100.00
28310;BME280;15571;50.974;13.936;2024-03-25T13:11:39;99177.41;;;11.89;100.00
28310;BME280;15571;50.974;13.936;2024-03-25T13:14:41;99168.59;;;11.91;100.00
28310;BME280;15571;50.974;13.936;2024-03-25T13:17:42;99166.03;;;11.88;100.00
28310;BME280;15571;50.974;13.936;2024-03-25T13:20:45;99178.06;;;11.97;100.00
28310;BME280;15571;50.974;13.936;2024-03-25T13:23:45;99168.72;;;12.18;100.00
28310;BME280;15571;50.974;13.936;2024-03-25T13:26:46;99174.53;;;12.29;100.00
28310;BME280;15571;50.974;13.936;2024-03-25T13:29:47;99165.47;;;12.40;100.00
28310;BME280;15571;50.974;13.936;2024-03-25T13:32:48;99163.97;;;12.33;100.00
28310;BME280;15571;50.974;13.936;2024-03-25T13:35:52;99161.47;;;12.56;100.00
28310;BME280;15571;50.974;13.936;2024-03-25T13:38:53;99161.53;;;12.55;100.00
28310;BME280;15571;50.974;13.936;2024-03-25T13:41:57;99164.06;;;12.58;100.00
28310;BME280;15571;50.974;13.936;2024-03-25T13:44:58;99167.19;;;12.71;100.00
28310;BME280;15571;50.974;13.936;2024-03-25T13:47:59;99176.41;;;12.54;100.00
28310;BME280;15571;50.974;13.936;2024-03-25T13:51:01;99167.69;;;12.54;100.00
28310;BME280;15571;50.974;13.936;2024-03-25T13:54:02;99166.34;;;12.69;100.00
28310;BME280;15571;50.974;13.936;2024-03-25T13:57:03;99166.16;;;12.75;100.00
28310;BME280;15571;50.974;13.936;2024-03-25T14:00:04;99162.09;;;12.65;100.00
28310;BME280;15571;50.974;13.936;2024-03-25T14:03:12;99162.72;;;12.44;100.00
28310;BME280;15571;50.974;13.936;2024-03-25T14:06:14;99158.50;;;12.39;100.00
28310;BME280;15571;50.974;13.936;2024-03-25T14:09:25;99162.81;;;12.11;100.00
28310;BME280;15571;50.974;13.936;2024-03-25T14:12:26;99163.28;;;11.94;100.00
28310;BME280;15571;50.974;13.936;2024-03-25T14:15:27;99154.47;;;11.95;100.00
28310;BME280;15571;50.974;13.936;2024-03-25T14:18:28;99143.72;;;11.75;100.00
28310;BME280;15571;50.974;13.936;2024-03-25T14:21:30;99139.69;;;11.93;100.00
28310;BME280;15571;50.974;13.936;2024-03-25T14:24:31;99141.25;;;12.02;100.00
28310;BME280;15571;50.974;13.936;2024-03-25T14:27:32;99146.50;;;12.00;100.00
28310;BME280;15571;50.974;13.936;2024-03-25T14:30:35;99142.84;;;12.06;100.00
28310;BME280;15571;50.974;13.936;2024-03-25T14:33:41;99126.63;;;12.23;100.00
28310;BME280;15571;50.974;13.936;2024-03-25T14:36:44;99120.28;;;12.30;100.00
28310;BME280;15571;50.974;13.936;2024-03-25T14:39:44;99122.69;;;12.38;100.00
28310;BME280;15571;50.974;13.936;2024-03-25T14:42:45;99123.56;;;12.37;100.00
28310;BME280;15571;50.974;13.936;2024-03-25T14:45:46;99119.75;;;12.47;100.00
28310;BME280;15571;50.974;13.936;2024-03-25T14:48:48;99120.50;;;12.52;100.00
28310;BME280;15571;50.974;13.936;2024-03-25T14:51:50;99118.78;;;12.51;100.00
28310;BME280;15571;50.974;13.936;2024-03-25T14:54:51;99115.66;;;12.67;100.00
28310;BME280;15571;50.974;13.936;2024-03-25T14:57:53;99117.09;;;12.77;100.00
28310;BME280;15571;50.974;13.936;2024-03-25T15:00:57;99111.81;;;12.77;100.00
28310;BME280;15571;50.974;13.936;2024-03-25T15:03:58;99113.47;;;12.53;100.00
28310;BME280;15571;50.974;13.936;2024-03-25T15:07:00;99107.66;;;12.43;100.00
28310;BME280;15571;50.974;13.936;2024-03-25T15:10:01;99115.63;;;12.10;100.00
28310;BME280;15571;50.974;13.936;2024-03-25T15:13:05;99103.63;;;12.03;100.00
28310;BME280;15571;50.974;13.936;2024-03-25T15:16:06;99108.34;;;11.88;100.00
28310;BME280;15571;50.974;13.936;2024-03-25T15:19:07;99112.34;;;11.39;100.00
28310;BME280;15571;50.974;13.936;2024-03-25T15:22:10;99106.84;;;11.48;100.00
28310;BME280;15571;50.974;13.936;2024-03-25T15:25:10;99113.22;;;11.71;100.00
28310;BME280;15571;50.974;13.936;2024-03-25T15:28:11;99116.56;;;11.76;100.00
28310;BME280;15571;50.974;13.936;2024-03-25T15:31:12;99114.50;;;11.87;100.00
28310;BME280;15571;50.974;13.936;2024-03-25T15:34:13;99113.56;;;11.90;100.00
28310;BME280;15571;50.974;13.936;2024-03-25T15:37:15;99114.44;;;11.90;100.00
28310;BME280;15571;50.974;13.936;2024-03-25T15:40:16;99113.38;;;11.96;100.00
28310;BME280;15571;50.974;13.936;2024-03-25T15:43:17;99109.63;;;12.06;100.00
28310;BME280;15571;50.974;13.936;2024-03-25T15:46:18;99105.22;;;12.07;100.00